sensor_id;sensor_type;location;lat;lon;timestamp;P1;durP1;ratioP1;P2;durP2;ratioP2
27907;SDS011;15249;48.092;11.484;2022-10-23T08:07:56;0;;;0;;
27907;SDS011;15249;48.092;11.484;2022-10-23T08:08:57;0;;;0;;
27907;SDS011;15249;48.092;11.484;2022-10-23T08:09:57;0;;;0;;
27907;SDS011;15249;48.092;11.484;2022-10-23T08:10:58;0;;;0;;
27907;SDS011;15249;48.092;11.484;2022-10-23T08:11:58;0;;;0;;
27907;SDS011;15249;48.092;11.484;2022-10-23T08:12:59;0;;;0;;
27907;SDS011;15249;48.092;11.484;2022-10-23T08:14:02;0;;;0;;
27907;SDS011;15249;48.092;11.484;2022-10-23T08:15:04;0;;;0;;
27907;SDS011;15249;48.092;11.484;2022-10-23T08:16:05;0;;;0;;
27907;SDS011;15249;48.092;11.484;2022-10-23T08:17:08;0;;;0;;
27907;SDS011;15249;48.092;11.484;2022-10-23T08:18:09;0;;;0;;
27907;SDS011;15249;48.092;11.484;2022-10-23T08:19:09;0;;;0;;
27907;SDS011;15249;48.092;11.484;2022-10-23T08:20:12;0;;;0;;
27907;SDS011;15249;48.092;11.484;2022-10-23T08:21:13;0;;;0;;
27907;SDS011;15249;48.092;11.484;2022-10-23T08:22:13;0;;;0;;
27907;SDS011;15249;48.092;11.484;2022-10-23T08:23:16;0;;;0;;
27907;SDS011;15249;48.092;11.484;2022-10-23T08:24:17;0;;;0;;
27907;SDS011;15249;48.092;11.484;2022-10-23T08:25:18;0;;;0;;
27907;SDS011;15249;48.092;11.484;2022-10-23T08:26:18;0;;;0;;
27907;SDS011;15249;48.092;11.484;2022-10-23T08:27:19;0;;;0;;
27907;SDS011;15249;48.092;11.484;2022-10-23T08:28:20;0;;;0;;
27907;SDS011;15249;48.092;11.484;2022-10-23T08:29:20;0;;;0;;
27907;SDS011;15249;48.092;11.484;2022-10-23T08:30:21;0;;;0;;
27907;SDS011;15249;48.092;11.484;2022-10-23T08:31:21;0;;;0;;
27907;SDS011;15249;48.092;11.484;2022-10-23T08:32:22;0;;;0;;
27907;SDS011;15249;48.092;11.484;2022-10-23T08:33:22;0;;;0;;
27907;SDS011;15249;48.092;11.484;2022-10-23T08:34:23;0;;;0;;
27907;SDS011;15249;48.092;11.484;2022-10-23T08:35:24;0;;;0;;
27907;SDS011;15249;48.092;11.484;2022-10-23T08:36:25;0;;;0;;
27907;SDS011;15249;48.092;11.484;2022-10-23T08:37:26;0;;;0;;
27907;SDS011;15249;48.092;11.484;2022-10-23T08:38:27;0;;;0;;
27907;SDS011;15249;48.092;11.484;2022-10-23T08:39:28;0;;;0;;
27907;SDS011;15249;48.092;11.484;2022-10-23T08:40:28;0;;;0;;
27907;SDS011;15249;48.092;11.484;2022-10-23T08:41:29;0;;;0;;
27907;SDS011;15249;48.092;11.484;2022-10-23T08:42:33;0;;;0;;
27907;SDS011;15249;48.092;11.484;2022-10-23T08:43:38;0;;;0;;
27907;SDS011;15249;48.092;11.484;2022-10-23T08:44:45;0;;;0;;
27907;SDS011;15249;48.092;11.484;2022-10-23T08:45:54;0;;;0;;
27907;SDS011;15249;48.092;11.484;2022-10-23T08:47:00;0;;;0;;
27907;SDS011;15249;48.092;11.484;2022-10-23T08:48:07;0;;;0;;
27907;SDS011;15249;48.092;11.484;2022-10-23T08:49:18;0;;;0;;
27907;SDS011;15249;48.092;11.484;2022-10-23T08:50:28;0;;;0;;
27907;SDS011;15249;48.092;11.484;2022-10-23T08:51:34;0;;;0;;
27907;SDS011;15249;48.092;11.484;2022-10-23T08:52:40;0;;;0;;
27907;SDS011;15249;48.092;11.484;2022-10-23T08:53:49;0;;;0;;
27907;SDS011;15249;48.092;11.484;2022-10-23T08:54:55;0;;;0;;
27907;SDS011;15249;48.092;11.484;2022-10-23T08:56:03;0;;;0;;
27907;SDS011;15249;48.092;11.484;2022-10-23T08:57:09;0;;;0;;
27907;SDS011;15249;48.092;11.484;2022-10-23T08:58:15;0;;;0;;
27907;SDS011;15249;48.092;11.484;2022-10-23T08:59:24;0;;;0;;
27907;SDS011;15249;48.092;11.484;2022-10-23T09:00:28;0;;;0;;
27907;SDS011;15249;48.092;11.484;2022-10-23T09:01:31;0;;;0;;
27907;SDS011;15249;48.092;11.484;2022-10-23T09:02:37;0;;;0;;
27907;SDS011;15249;48.092;11.484;2022-10-23T09:03:41;0;;;0;;
27907;SDS011;15249;48.092;11.484;2022-10-23T09:04:44;0;;;0;;
27907;SDS011;15249;48.092;11.484;2022-10-23T09:05:51;0;;;0;;
27907;SDS011;15249;48.092;11.484;2022-10-23T09:07:03;0;;;0;;
27907;SDS011;15249;48.092;11.484;2022-10-23T09:08:19;0;;;0;;
27907;SDS011;15249;48.092;11.484;2022-10-23T09:09:41;0;;;0;;
27907;SDS011;15249;48.092;11.484;2022-10-23T09:10:52;0;;;0;;
27907;SDS011;15249;48.092;11.484;2022-10-23T09:12:02;0;;;0;;
27907;SDS011;15249;48.092;11.484;2022-10-23T09:13:15;0;;;0;;
27907;SDS011;15249;48.092;11.484;2022-10-23T09:14:30;0;;;0;;
27907;SDS011;15249;48.092;11.484;2022-10-23T09:15:40;0;;;0;;
27907;SDS011;15249;48.092;11.484;2022-10-23T09:16:49;0;;;0;;
27907;SDS011;15249;48.092;11.484;2022-10-23T09:17:58;0;;;0;;
27907;SDS011;15249;48.092;11.484;2022-10-23T09:19:09;0;;;0;;
27907;SDS011;15249;48.092;11.484;2022-10-23T09:20:13;0;;;0;;
27907;SDS011;15249;48.092;11.484;2022-10-23T09:21:18;0;;;0;;
27907;SDS011;15249;48.092;11.484;2022-10-23T09:22:18;0;;;0;;
27907;SDS011;15249;48.092;11.484;2022-10-23T09:38:22;1.3;;;0.25;;
27907;SDS011;15249;48.092;11.484;2022-10-23T09:39:27;1.3;;;0.25;;
27907;SDS011;15249;48.092;11.484;2022-10-23T09:40:35;1.3;;;0.25;;
27907;SDS011;15249;48.092;11.484;2022-10-23T09:41:40;1.3;;;0.25;;
27907;SDS011;15249;48.092;11.484;2022-10-23T09:42:50;1.3;;;0.25;;
27907;SDS011;15249;48.092;11.484;2022-10-23T09:44:16;1.3;;;0.25;;
27907;SDS011;15249;48.092;11.484;2022-10-23T09:45:20;1.3;;;0.25;;
27907;SDS011;15249;48.092;11.484;2022-10-23T09:46:22;1.3;;;0.25;;
27907;SDS011;15249;48.092;11.484;2022-10-23T09:47:23;1.3;;;0.25;;
27907;SDS011;15249;48.092;11.484;2022-10-23T09:48:25;1.3;;;0.25;;
27907;SDS011;15249;48.092;11.484;2022-10-23T09:49:26;0.7;;;0.1;;
27907;SDS011;15249;48.092;11.484;2022-10-23T09:50:28;0.7;;;0.1;;
27907;SDS011;15249;48.092;11.484;2022-10-23T09:51:29;0.7;;;0.1;;
27907;SDS011;15249;48.092;11.484;2022-10-23T09:52:31;0.7;;;0.1;;
27907;SDS011;15249;48.092;11.484;2022-10-23T09:53:36;0.7;;;0.1;;
27907;SDS011;15249;48.092;11.484;2022-10-23T09:54:38;0.7;;;0.1;;
27907;SDS011;15249;48.092;11.484;2022-10-23T09:55:49;0.7;;;0.1;;
27907;SDS011;15249;48.092;11.484;2022-10-23T09:56:52;0.7;;;0.1;;
27907;SDS011;15249;48.092;11.484;2022-10-23T09:57:54;0.7;;;0.1;;
27907;SDS011;15249;48.092;11.484;2022-10-23T09:58:55;0.7;;;0.1;;
27907;SDS011;15249;48.092;11.484;2022-10-23T09:59:58;0.15;;;0.1;;
27907;SDS011;15249;48.092;11.484;2022-10-23T10:01:01;0.15;;;0.1;;
27907;SDS011;15249;48.092;11.484;2022-10-23T10:02:15;0.15;;;0.1;;
27907;SDS011;15249;48.092;11.484;2022-10-23T10:03:21;0.15;;;0.1;;
27907;SDS011;15249;48.092;11.484;2022-10-23T10:04:31;0.15;;;0.1;;
27907;SDS011;15249;48.092;11.484;2022-10-23T10:05:33;0.15;;;0.1;;
27907;SDS011;15249;48.092;11.484;2022-10-23T10:06:35;0.15;;;0.1;;
27907;SDS011;15249;48.092;11.484;2022-10-23T10:07:36;0.15;;;0.1;;
27907;SDS011;15249;48.092;11.484;2022-10-23T10:08:39;0.15;;;0.1;;
27907;SDS011;15249;48.092;11.484;2022-10-23T10:09:42;0.15;;;0.1;;
27907;SDS011;15249;48.092;11.484;2022-10-23T10:10:43;0.2;;;0.2;;
27907;SDS011;15249;48.092;11.484;2022-10-23T10:11:49;0.2;;;0.2;;
27907;SDS011;15249;48.092;11.484;2022-10-23T10:12:55;0.2;;;0.2;;
27907;SDS011;15249;48.092;11.484;2022-10-23T10:14:05;0.2;;;0.2;;
27907;SDS011;15249;48.092;11.484;2022-10-23T10:15:24;0.2;;;0.2;;
27907;SDS011;15249;48.092;11.484;2022-10-23T10:16:31;0.2;;;0.2;;
27907;SDS011;15249;48.092;11.484;2022-10-23T10:17:42;0.2;;;0.2;;
27907;SDS011;15249;48.092;11.484;2022-10-23T10:18:53;0.2;;;0.2;;
27907;SDS011;15249;48.092;11.484;2022-10-23T10:20:06;0.2;;;0.2;;
27907;SDS011;15249;48.092;11.484;2022-10-23T10:21:19;0.2;;;0.2;;
27907;SDS011;15249;48.092;11.484;2022-10-23T10:22:25;0.2;;;0.2;;
27907;SDS011;15249;48.092;11.484;2022-10-23T10:23:34;0.2;;;0.2;;
27907;SDS011;15249;48.092;11.484;2022-10-23T10:24:45;0.2;;;0.2;;
27907;SDS011;15249;48.092;11.484;2022-10-23T10:25:53;0.2;;;0.2;;
27907;SDS011;15249;48.092;11.484;2022-10-23T10:27:03;0.2;;;0.2;;
27907;SDS011;15249;48.092;11.484;2022-10-23T10:28:17;0.2;;;0.2;;
27907;SDS011;15249;48.092;11.484;2022-10-23T10:29:36;0.2;;;0.2;;
27907;SDS011;15249;48.092;11.484;2022-10-23T10:30:47;0.2;;;0.2;;
27907;SDS011;15249;48.092;11.484;2022-10-23T10:31:56;0.6;;;0.5;;
27907;SDS011;15249;48.092;11.484;2022-10-23T10:33:06;0.6;;;0.5;;
27907;SDS011;15249;48.092;11.484;2022-10-23T10:34:17;0.6;;;0.5;;
27907;SDS011;15249;48.092;11.484;2022-10-23T10:35:22;0.6;;;0.5;;
27907;SDS011;15249;48.092;11.484;2022-10-23T10:36:38;0.6;;;0.5;;
27907;SDS011;15249;48.092;11.484;2022-10-23T10:37:49;0.6;;;0.5;;
27907;SDS011;15249;48.092;11.484;2022-10-23T10:39:03;0.6;;;0.5;;
27907;SDS011;15249;48.092;11.484;2022-10-23T10:40:13;0.6;;;0.5;;
27907;SDS011;15249;48.092;11.484;2022-10-23T10:41:24;0.6;;;0.5;;
27907;SDS011;15249;48.092;11.484;2022-10-23T10:42:38;0.5;;;0.5;;
27907;SDS011;15249;48.092;11.484;2022-10-23T10:43:51;0.5;;;0.5;;
27907;SDS011;15249;48.092;11.484;2022-10-23T10:45:04;0.5;;;0.5;;
27907;SDS011;15249;48.092;11.484;2022-10-23T10:46:14;0.5;;;0.5;;
27907;SDS011;15249;48.092;11.484;2022-10-23T10:47:24;0.5;;;0.5;;
27907;SDS011;15249;48.092;11.484;2022-10-23T10:48:36;0.5;;;0.5;;
27907;SDS011;15249;48.092;11.484;2022-10-23T10:49:44;0.5;;;0.5;;
27907;SDS011;15249;48.092;11.484;2022-10-23T10:50:51;0.5;;;0.5;;
27907;SDS011;15249;48.092;11.484;2022-10-23T10:51:58;0.5;;;0.5;;
27907;SDS011;15249;48.092;11.484;2022-10-23T10:53:07;0.5;;;0.5;;
27907;SDS011;15249;48.092;11.484;2022-10-23T10:54:19;0.9;;;0.9;;
27907;SDS011;15249;48.092;11.484;2022-10-23T10:55:30;0.9;;;0.9;;
27907;SDS011;15249;48.092;11.484;2022-10-23T10:56:33;0.9;;;0.9;;
27907;SDS011;15249;48.092;11.484;2022-10-23T10:57:38;0.9;;;0.9;;
27907;SDS011;15249;48.092;11.484;2022-10-23T10:58:43;0.9;;;0.9;;
27907;SDS011;15249;48.092;11.484;2022-10-23T10:59:47;0.9;;;0.9;;
27907;SDS011;15249;48.092;11.484;2022-10-23T11:00:51;0.9;;;0.9;;
27907;SDS011;15249;48.092;11.484;2022-10-23T11:01:56;0.9;;;0.9;;
27907;SDS011;15249;48.092;11.484;2022-10-23T11:03:03;0.9;;;0.9;;
27907;SDS011;15249;48.092;11.484;2022-10-23T11:04:20;0.9;;;0.75;;
27907;SDS011;15249;48.092;11.484;2022-10-23T11:05:28;0.9;;;0.75;;
27907;SDS011;15249;48.092;11.484;2022-10-23T11:06:32;0.9;;;0.75;;
27907;SDS011;15249;48.092;11.484;2022-10-23T11:07:37;0.9;;;0.75;;
27907;SDS011;15249;48.092;11.484;2022-10-23T11:08:41;0.9;;;0.75;;
27907;SDS011;15249;48.092;11.484;2022-10-23T11:09:42;0.9;;;0.75;;
27907;SDS011;15249;48.092;11.484;2022-10-23T11:10:43;0.9;;;0.75;;
27907;SDS011;15249;48.092;11.484;2022-10-23T11:11:46;0.9;;;0.75;;
27907;SDS011;15249;48.092;11.484;2022-10-23T11:12:47;0.9;;;0.75;;
27907;SDS011;15249;48.092;11.484;2022-10-23T11:13:49;0.9;;;0.75;;
27907;SDS011;15249;48.092;11.484;2022-10-23T11:14:50;1.8;;;1.1;;
27907;SDS011;15249;48.092;11.484;2022-10-23T11:15:54;1.8;;;1.1;;
27907;SDS011;15249;48.092;11.484;2022-10-23T11:17:00;1.8;;;1.1;;
27907;SDS011;15249;48.092;11.484;2022-10-23T11:18:11;1.8;;;1.1;;
27907;SDS011;15249;48.092;11.484;2022-10-23T11:19:19;1.8;;;1.1;;
27907;SDS011;15249;48.092;11.484;2022-10-23T11:20:27;1.8;;;1.1;;
27907;SDS011;15249;48.092;11.484;2022-10-23T11:21:38;1.8;;;1.1;;
27907;SDS011;15249;48.092;11.484;2022-10-23T11:22:44;1.8;;;1.1;;
27907;SDS011;15249;48.092;11.484;2022-10-23T11:29:19;1.1;;;0.7;;
27907;SDS011;15249;48.092;11.484;2022-10-23T11:31:32;1.1;;;0.7;;
27907;SDS011;15249;48.092;11.484;2022-10-23T11:32:59;1.1;;;0.7;;
27907;SDS011;15249;48.092;11.484;2022-10-23T11:34:31;1.1;;;0.7;;
27907;SDS011;15249;48.092;11.484;2022-10-23T11:35:45;1.1;;;0.7;;
27907;SDS011;15249;48.092;11.484;2022-10-23T11:36:52;0.5;;;0.5;;
27907;SDS011;15249;48.092;11.484;2022-10-23T11:37:56;0.5;;;0.5;;
27907;SDS011;15249;48.092;11.484;2022-10-23T11:39:05;0.5;;;0.5;;
27907;SDS011;15249;48.092;11.484;2022-10-23T11:40:18;0.5;;;0.5;;
27907;SDS011;15249;48.092;11.484;2022-10-23T11:41:23;0.5;;;0.5;;
27907;SDS011;15249;48.092;11.484;2022-10-23T11:42:29;0.5;;;0.5;;
27907;SDS011;15249;48.092;11.484;2022-10-23T11:43:33;0.5;;;0.5;;
27907;SDS011;15249;48.092;11.484;2022-10-23T11:44:45;0.5;;;0.5;;
27907;SDS011;15249;48.092;11.484;2022-10-23T11:45:47;0.5;;;0.5;;
27907;SDS011;15249;48.092;11.484;2022-10-23T11:46:48;0.6;;;0.45;;
27907;SDS011;15249;48.092;11.484;2022-10-23T11:48:00;0.6;;;0.45;;
27907;SDS011;15249;48.092;11.484;2022-10-23T11:49:05;0.6;;;0.45;;
27907;SDS011;15249;48.092;11.484;2022-10-23T11:50:23;0.6;;;0.45;;
27907;SDS011;15249;48.092;11.484;2022-10-23T11:51:27;0.6;;;0.45;;
27907;SDS011;15249;48.092;11.484;2022-10-23T11:52:29;0.6;;;0.45;;
27907;SDS011;15249;48.092;11.484;2022-10-23T11:53:38;0.6;;;0.45;;
27907;SDS011;15249;48.092;11.484;2022-10-23T11:54:39;0.6;;;0.45;;
27907;SDS011;15249;48.092;11.484;2022-10-23T11:55:55;0.6;;;0.45;;
27907;SDS011;15249;48.092;11.484;2022-10-23T11:57:09;0.6;;;0.45;;
27907;SDS011;15249;48.092;11.484;2022-10-23T11:58:17;0.5;;;0.5;;
27907;SDS011;15249;48.092;11.484;2022-10-23T11:59:24;0.5;;;0.5;;
27907;SDS011;15249;48.092;11.484;2022-10-23T12:00:27;0.5;;;0.5;;
27907;SDS011;15249;48.092;11.484;2022-10-23T12:01:32;0.5;;;0.5;;
27907;SDS011;15249;48.092;11.484;2022-10-23T12:02:37;0.5;;;0.5;;
27907;SDS011;15249;48.092;11.484;2022-10-23T12:03:46;0.5;;;0.5;;
27907;SDS011;15249;48.092;11.484;2022-10-23T12:04:50;0.5;;;0.5;;
27907;SDS011;15249;48.092;11.484;2022-10-23T12:05:55;0.5;;;0.5;;
27907;SDS011;15249;48.092;11.484;2022-10-23T12:07:00;0.5;;;0.5;;
27907;SDS011;15249;48.092;11.484;2022-10-23T12:08:18;1.3;;;0.4;;
27907;SDS011;15249;48.092;11.484;2022-10-23T12:09:24;1.3;;;0.4;;
27907;SDS011;15249;48.092;11.484;2022-10-23T12:10:28;1.3;;;0.4;;
27907;SDS011;15249;48.092;11.484;2022-10-23T12:11:41;1.3;;;0.4;;
27907;SDS011;15249;48.092;11.484;2022-10-23T12:12:53;1.3;;;0.4;;
27907;SDS011;15249;48.092;11.484;2022-10-23T12:13:55;1.3;;;0.4;;
27907;SDS011;15249;48.092;11.484;2022-10-23T12:15:05;1.3;;;0.4;;
27907;SDS011;15249;48.092;11.484;2022-10-23T12:16:08;1.3;;;0.4;;
27907;SDS011;15249;48.092;11.484;2022-10-23T12:17:19;1.3;;;0.4;;
27907;SDS011;15249;48.092;11.484;2022-10-23T12:18:28;1.3;;;0.4;;
27907;SDS011;15249;48.092;11.484;2022-10-23T12:19:30;1.3;;;0.4;;
27907;SDS011;15249;48.092;11.484;2022-10-23T12:20:49;1.3;;;0.4;;
27907;SDS011;15249;48.092;11.484;2022-10-23T12:21:52;1.3;;;0.4;;
27907;SDS011;15249;48.092;11.484;2022-10-23T12:23:00;1.3;;;0.4;;
27907;SDS011;15249;48.092;11.484;2022-10-23T12:24:20;1.3;;;0.4;;
27907;SDS011;15249;48.092;11.484;2022-10-23T12:25:31;1.3;;;0.4;;
27907;SDS011;15249;48.092;11.484;2022-10-23T12:26:42;1.3;;;0.4;;
27907;SDS011;15249;48.092;11.484;2022-10-23T12:27:48;1.3;;;0.4;;
27907;SDS011;15249;48.092;11.484;2022-10-23T12:28:56;1.3;;;0.4;;
27907;SDS011;15249;48.092;11.484;2022-10-23T12:30:13;0.4;;;0.3;;
27907;SDS011;15249;48.092;11.484;2022-10-23T12:31:22;0.4;;;0.3;;
27907;SDS011;15249;48.092;11.484;2022-10-23T12:32:37;0.4;;;0.3;;
27907;SDS011;15249;48.092;11.484;2022-10-23T12:33:46;0.4;;;0.3;;
27907;SDS011;15249;48.092;11.484;2022-10-23T12:34:57;0.4;;;0.3;;
27907;SDS011;15249;48.092;11.484;2022-10-23T12:36:24;0.4;;;0.3;;
27907;SDS011;15249;48.092;11.484;2022-10-23T12:37:45;0.4;;;0.3;;
27907;SDS011;15249;48.092;11.484;2022-10-23T12:38:57;0.4;;;0.3;;
27907;SDS011;15249;48.092;11.484;2022-10-23T12:39:58;0.4;;;0.3;;
27907;SDS011;15249;48.092;11.484;2022-10-23T12:40:59;0.4;;;0.3;;
27907;SDS011;15249;48.092;11.484;2022-10-23T12:42:08;0.4;;;0.3;;
27907;SDS011;15249;48.092;11.484;2022-10-23T12:43:19;0.4;;;0.3;;
27907;SDS011;15249;48.092;11.484;2022-10-23T12:44:24;0.4;;;0.3;;
27907;SDS011;15249;48.092;11.484;2022-10-23T12:45:26;0.4;;;0.3;;
27907;SDS011;15249;48.092;11.484;2022-10-23T12:46:30;0.4;;;0.3;;
27907;SDS011;15249;48.092;11.484;2022-10-23T12:47:33;0.4;;;0.3;;
27907;SDS011;15249;48.092;11.484;2022-10-23T12:48:34;0.4;;;0.3;;
27907;SDS011;15249;48.092;11.484;2022-10-23T12:49:34;0.4;;;0.3;;
27907;SDS011;15249;48.092;11.484;2022-10-23T12:50:35;1.4;;;0.7;;
27907;SDS011;15249;48.092;11.484;2022-10-23T12:51:36;1.4;;;0.7;;
27907;SDS011;15249;48.092;11.484;2022-10-23T12:52:38;1.4;;;0.7;;
27907;SDS011;15249;48.092;11.484;2022-10-23T12:53:39;1.4;;;0.7;;
27907;SDS011;15249;48.092;11.484;2022-10-23T12:54:39;1.4;;;0.7;;
27907;SDS011;15249;48.092;11.484;2022-10-23T12:55:45;1.4;;;0.7;;
27907;SDS011;15249;48.092;11.484;2022-10-23T12:56:48;1.4;;;0.7;;
27907;SDS011;15249;48.092;11.484;2022-10-23T12:57:49;1.4;;;0.7;;
27907;SDS011;15249;48.092;11.484;2022-10-23T12:58:51;1.4;;;0.7;;
27907;SDS011;15249;48.092;11.484;2022-10-23T12:59:54;1.4;;;0.7;;
27907;SDS011;15249;48.092;11.484;2022-10-23T13:00:58;1.4;;;0.7;;
27907;SDS011;15249;48.092;11.484;2022-10-23T13:02:00;0.45;;;0.4;;
27907;SDS011;15249;48.092;11.484;2022-10-23T13:03:01;0.45;;;0.4;;
27907;SDS011;15249;48.092;11.484;2022-10-23T13:04:04;0.45;;;0.4;;
27907;SDS011;15249;48.092;11.484;2022-10-23T13:05:13;0.45;;;0.4;;
27907;SDS011;15249;48.092;11.484;2022-10-23T13:06:17;0.45;;;0.4;;
27907;SDS011;15249;48.092;11.484;2022-10-23T13:07:18;0.45;;;0.4;;
27907;SDS011;15249;48.092;11.484;2022-10-23T13:08:20;0.45;;;0.4;;
27907;SDS011;15249;48.092;11.484;2022-10-23T13:09:23;0.45;;;0.4;;
27907;SDS011;15249;48.092;11.484;2022-10-23T13:10:27;0.45;;;0.4;;
27907;SDS011;15249;48.092;11.484;2022-10-23T13:11:29;0.45;;;0.4;;
27907;SDS011;15249;48.092;11.484;2022-10-23T13:12:31;0.8;;;0.2;;
27907;SDS011;15249;48.092;11.484;2022-10-23T13:13:33;0.8;;;0.2;;
27907;SDS011;15249;48.092;11.484;2022-10-23T13:14:35;0.8;;;0.2;;
27907;SDS011;15249;48.092;11.484;2022-10-23T13:15:38;0.8;;;0.2;;
27907;SDS011;15249;48.092;11.484;2022-10-23T13:16:39;0.8;;;0.2;;
27907;SDS011;15249;48.092;11.484;2022-10-23T13:17:41;0.8;;;0.2;;
27907;SDS011;15249;48.092;11.484;2022-10-23T13:18:42;0.8;;;0.2;;
27907;SDS011;15249;48.092;11.484;2022-10-23T13:19:43;0.8;;;0.2;;
27907;SDS011;15249;48.092;11.484;2022-10-23T13:20:54;0.8;;;0.2;;
27907;SDS011;15249;48.092;11.484;2022-10-23T13:21:57;0.8;;;0.2;;
27907;SDS011;15249;48.092;11.484;2022-10-23T13:22:59;0.8;;;0.2;;
27907;SDS011;15249;48.092;11.484;2022-10-23T13:24:14;0.8;;;0.2;;
27907;SDS011;15249;48.092;11.484;2022-10-23T13:25:20;0.8;;;0.2;;
27907;SDS011;15249;48.092;11.484;2022-10-23T13:26:23;0.8;;;0.2;;
27907;SDS011;15249;48.092;11.484;2022-10-23T13:27:30;0.8;;;0.2;;
27907;SDS011;15249;48.092;11.484;2022-10-23T13:28:32;0.8;;;0.2;;
27907;SDS011;15249;48.092;11.484;2022-10-23T13:29:40;0.8;;;0.2;;
27907;SDS011;15249;48.092;11.484;2022-10-23T13:30:42;0.8;;;0.2;;
27907;SDS011;15249;48.092;11.484;2022-10-23T13:31:43;0.8;;;0.2;;
27907;SDS011;15249;48.092;11.484;2022-10-23T13:32:44;0.8;;;0.2;;
27907;SDS011;15249;48.092;11.484;2022-10-23T13:33:45;0.6;;;0.3;;
27907;SDS011;15249;48.092;11.484;2022-10-23T13:34:49;0.6;;;0.3;;
27907;SDS011;15249;48.092;11.484;2022-10-23T13:35:54;0.6;;;0.3;;
27907;SDS011;15249;48.092;11.484;2022-10-23T13:36:57;0.6;;;0.3;;
27907;SDS011;15249;48.092;11.484;2022-10-23T13:38:06;0.6;;;0.3;;
27907;SDS011;15249;48.092;11.484;2022-10-23T13:39:11;0.6;;;0.3;;
27907;SDS011;15249;48.092;11.484;2022-10-23T13:40:19;0.6;;;0.3;;
27907;SDS011;15249;48.092;11.484;2022-10-23T13:41:21;0.6;;;0.3;;
27907;SDS011;15249;48.092;11.484;2022-10-23T13:42:22;0.6;;;0.3;;
27907;SDS011;15249;48.092;11.484;2022-10-23T13:43:22;0.6;;;0.3;;
27907;SDS011;15249;48.092;11.484;2022-10-23T13:44:25;0.5;;;0.45;;
27907;SDS011;15249;48.092;11.484;2022-10-23T13:45:26;0.5;;;0.45;;
27907;SDS011;15249;48.092;11.484;2022-10-23T13:46:26;0.5;;;0.45;;
27907;SDS011;15249;48.092;11.484;2022-10-23T13:47:27;0.5;;;0.45;;
27907;SDS011;15249;48.092;11.484;2022-10-23T13:48:28;0.5;;;0.45;;
27907;SDS011;15249;48.092;11.484;2022-10-23T13:49:28;0.5;;;0.45;;
27907;SDS011;15249;48.092;11.484;2022-10-23T13:50:30;0.5;;;0.45;;
27907;SDS011;15249;48.092;11.484;2022-10-23T13:51:31;0.5;;;0.45;;
27907;SDS011;15249;48.092;11.484;2022-10-23T13:52:34;0.5;;;0.45;;
27907;SDS011;15249;48.092;11.484;2022-10-23T13:53:35;0.5;;;0.45;;
27907;SDS011;15249;48.092;11.484;2022-10-23T13:54:35;1.2;;;0.8;;
27907;SDS011;15249;48.092;11.484;2022-10-23T13:55:37;1.2;;;0.8;;
27907;SDS011;15249;48.092;11.484;2022-10-23T13:56:39;1.2;;;0.8;;
27907;SDS011;15249;48.092;11.484;2022-10-23T13:57:40;1.2;;;0.8;;
27907;SDS011;15249;48.092;11.484;2022-10-23T13:58:41;1.2;;;0.8;;
27907;SDS011;15249;48.092;11.484;2022-10-23T13:59:41;1.2;;;0.8;;
27907;SDS011;15249;48.092;11.484;2022-10-23T14:00:43;1.2;;;0.8;;
27907;SDS011;15249;48.092;11.484;2022-10-23T14:01:47;1.2;;;0.8;;
27907;SDS011;15249;48.092;11.484;2022-10-23T14:02:48;1.2;;;0.8;;
27907;SDS011;15249;48.092;11.484;2022-10-23T14:03:49;1.2;;;0.8;;
27907;SDS011;15249;48.092;11.484;2022-10-23T14:04:49;1.2;;;0.8;;
27907;SDS011;15249;48.092;11.484;2022-10-23T14:05:50;0.7;;;0.7;;
27907;SDS011;15249;48.092;11.484;2022-10-23T14:06:57;0.7;;;0.7;;
27907;SDS011;15249;48.092;11.484;2022-10-23T14:07:57;0.7;;;0.7;;
27907;SDS011;15249;48.092;11.484;2022-10-23T14:08:58;0.7;;;0.7;;
27907;SDS011;15249;48.092;11.484;2022-10-23T14:09:58;0.7;;;0.7;;
27907;SDS011;15249;48.092;11.484;2022-10-23T14:10:59;0.7;;;0.7;;
27907;SDS011;15249;48.092;11.484;2022-10-23T14:11:59;0.7;;;0.7;;
27907;SDS011;15249;48.092;11.484;2022-10-23T14:13:00;0.7;;;0.7;;
27907;SDS011;15249;48.092;11.484;2022-10-23T14:14:00;0.7;;;0.7;;
27907;SDS011;15249;48.092;11.484;2022-10-23T14:15:01;0.7;;;0.7;;
27907;SDS011;15249;48.092;11.484;2022-10-23T14:16:01;1.2;;;0.8;;
27907;SDS011;15249;48.092;11.484;2022-10-23T14:17:02;1.2;;;0.8;;
27907;SDS011;15249;48.092;11.484;2022-10-23T14:18:02;1.2;;;0.8;;
27907;SDS011;15249;48.092;11.484;2022-10-23T14:19:03;1.2;;;0.8;;
27907;SDS011;15249;48.092;11.484;2022-10-23T14:20:04;1.2;;;0.8;;
27907;SDS011;15249;48.092;11.484;2022-10-23T14:21:06;1.2;;;0.8;;
27907;SDS011;15249;48.092;11.484;2022-10-23T14:22:07;1.2;;;0.8;;
27907;SDS011;15249;48.092;11.484;2022-10-23T14:23:08;1.2;;;0.8;;
27907;SDS011;15249;48.092;11.484;2022-10-23T14:24:08;1.2;;;0.8;;
27907;SDS011;15249;48.092;11.484;2022-10-23T14:25:09;1.2;;;0.8;;
27907;SDS011;15249;48.092;11.484;2022-10-23T14:26:10;1.2;;;0.8;;
27907;SDS011;15249;48.092;11.484;2022-10-23T14:27:12;0.9;;;0.8;;
27907;SDS011;15249;48.092;11.484;2022-10-23T14:28:12;0.9;;;0.8;;
27907;SDS011;15249;48.092;11.484;2022-10-23T14:29:13;0.9;;;0.8;;
27907;SDS011;15249;48.092;11.484;2022-10-23T14:30:13;0.9;;;0.8;;
27907;SDS011;15249;48.092;11.484;2022-10-23T14:31:15;0.9;;;0.8;;
27907;SDS011;15249;48.092;11.484;2022-10-23T14:32:16;0.9;;;0.8;;
27907;SDS011;15249;48.092;11.484;2022-10-23T14:33:17;0.9;;;0.8;;
27907;SDS011;15249;48.092;11.484;2022-10-23T14:34:17;0.9;;;0.8;;
27907;SDS011;15249;48.092;11.484;2022-10-23T14:35:18;0.9;;;0.8;;
27907;SDS011;15249;48.092;11.484;2022-10-23T14:36:18;0.9;;;0.8;;
27907;SDS011;15249;48.092;11.484;2022-10-23T14:37:19;1.3;;;0.7;;
27907;SDS011;15249;48.092;11.484;2022-10-23T14:38:20;1.3;;;0.7;;
27907;SDS011;15249;48.092;11.484;2022-10-23T14:39:20;1.3;;;0.7;;
27907;SDS011;15249;48.092;11.484;2022-10-23T14:40:21;1.3;;;0.7;;
27907;SDS011;15249;48.092;11.484;2022-10-23T14:41:22;1.3;;;0.7;;
27907;SDS011;15249;48.092;11.484;2022-10-23T14:42:23;1.3;;;0.7;;
27907;SDS011;15249;48.092;11.484;2022-10-23T14:43:24;1.3;;;0.7;;
27907;SDS011;15249;48.092;11.484;2022-10-23T14:44:24;1.3;;;0.7;;
27907;SDS011;15249;48.092;11.484;2022-10-23T14:45:25;1.3;;;0.7;;
27907;SDS011;15249;48.092;11.484;2022-10-23T14:46:26;1.3;;;0.7;;
27907;SDS011;15249;48.092;11.484;2022-10-23T14:47:27;1.3;;;0.7;;
27907;SDS011;15249;48.092;11.484;2022-10-23T14:48:28;1.7;;;1;;
27907;SDS011;15249;48.092;11.484;2022-10-23T14:49:28;1.7;;;1;;
27907;SDS011;15249;48.092;11.484;2022-10-23T14:50:29;1.7;;;1;;
27907;SDS011;15249;48.092;11.484;2022-10-23T14:51:30;1.7;;;1;;
27907;SDS011;15249;48.092;11.484;2022-10-23T14:52:31;1.7;;;1;;
27907;SDS011;15249;48.092;11.484;2022-10-23T14:53:31;1.7;;;1;;
27907;SDS011;15249;48.092;11.484;2022-10-23T14:54:34;1.7;;;1;;
27907;SDS011;15249;48.092;11.484;2022-10-23T14:55:34;1.7;;;1;;
27907;SDS011;15249;48.092;11.484;2022-10-23T14:56:36;1.7;;;1;;
27907;SDS011;15249;48.092;11.484;2022-10-23T14:57:37;1.7;;;1;;
27907;SDS011;15249;48.092;11.484;2022-10-23T14:58:38;2;;;1.2;;
27907;SDS011;15249;48.092;11.484;2022-10-23T14:59:38;2;;;1.2;;
27907;SDS011;15249;48.092;11.484;2022-10-23T15:00:39;2;;;1.2;;
27907;SDS011;15249;48.092;11.484;2022-10-23T15:01:40;2;;;1.2;;
27907;SDS011;15249;48.092;11.484;2022-10-23T15:02:42;2;;;1.2;;
27907;SDS011;15249;48.092;11.484;2022-10-23T15:03:43;2;;;1.2;;
27907;SDS011;15249;48.092;11.484;2022-10-23T15:04:43;2;;;1.2;;
27907;SDS011;15249;48.092;11.484;2022-10-23T15:05:44;2;;;1.2;;
27907;SDS011;15249;48.092;11.484;2022-10-23T15:06:45;2;;;1.2;;
27907;SDS011;15249;48.092;11.484;2022-10-23T15:07:46;2;;;1.2;;
27907;SDS011;15249;48.092;11.484;2022-10-23T15:08:48;2;;;1.2;;
27907;SDS011;15249;48.092;11.484;2022-10-23T15:09:50;1.6;;;0.8;;
27907;SDS011;15249;48.092;11.484;2022-10-23T15:10:51;1.6;;;0.8;;